»·PEaware :: DAL343 KSFO-KLAS

DAL343 :: KSFO-KLAS

FLIGHT INFORMATION

Flight Status: Arrived
Operator:
Delta Air Lines
More flights by this operator :: More flights under this callsign
Pilot: James W. (12414)
Aircraft: BOEING 737-800
(B738)
More flights by this aircraft type
Origin: KSFO San Francisco Intl
United States
Destination: KLAS McCarran Intl
United States
More flights between these airports :: More routes between these airports
Route: +WESLA4 NTELL 162 ESSAA DCT BTY SUNST4
File this flight plan on PilotEdge
Remarks:
Altitude:
(Current/Filed)
35,000ft
Speed:
(Current/Filed)
450kts
Departed: 01-Apr-20 04:46 PM
Arrived: 01-Apr-20 06:00 PM
Distance/Time
Traveled:
359nm/1:14
Distance/Time
To Go:
Arrived

Flight Plot

Page will automatically refresh every two minutes.

Flight plan parsing failed; only flown route is shown


Map Options




Map Legend


Flown Route
Filed Route
Departure Airport
Arrival Airport
Navaid (VOR, NDB)
Fix

Horizontal Profiles

Position Reports

Time Latitude Longitude Heading Altitude Ground
Speed
01-Apr-20 16:14 37.612832 -122.383170 296 20ft 0kts
01-Apr-20 16:15 37.612832 -122.383170 296 20ft 0kts
01-Apr-20 16:17 37.612832 -122.383170 296 20ft 0kts
01-Apr-20 16:18 37.612832 -122.383170 296 20ft 0kts
01-Apr-20 16:19 37.612832 -122.383170 296 20ft 0kts
01-Apr-20 16:20 37.612832 -122.383170 296 20ft 0kts
01-Apr-20 16:21 37.612832 -122.383170 296 20ft 0kts
01-Apr-20 16:22 37.612832 -122.383170 296 20ft 0kts
01-Apr-20 16:23 37.612832 -122.383170 296 20ft 0kts
01-Apr-20 16:24 37.612832 -122.383170 296 20ft 0kts
01-Apr-20 16:25 37.612832 -122.383170 296 20ft 0kts
01-Apr-20 16:26 37.612832 -122.383170 296 20ft 0kts
01-Apr-20 16:27 37.612832 -122.383170 296 20ft 0kts
01-Apr-20 16:28 37.612832 -122.383170 296 20ft 0kts
01-Apr-20 16:29 37.612832 -122.383170 296 20ft 0kts
01-Apr-20 16:30 37.612832 -122.383170 296 20ft 0kts
01-Apr-20 16:31 37.612832 -122.383169 296 21ft 0kts
01-Apr-20 16:32 37.612832 -122.383170 296 20ft 0kts
01-Apr-20 16:33 37.612832 -122.383170 296 20ft 0kts
01-Apr-20 16:34 37.612832 -122.383170 296 20ft 0kts
01-Apr-20 16:35 37.612832 -122.383170 296 20ft 0kts
01-Apr-20 16:36 37.612832 -122.383169 296 21ft 0kts
01-Apr-20 16:36 37.612638 -122.382697 297 21ft 2kts
01-Apr-20 16:38 37.612316 -122.382460 28 21ft 0kts
01-Apr-20 16:38 37.612316 -122.382460 28 21ft 0kts
01-Apr-20 16:39 37.612401 -122.382404 27 20ft 5kts
01-Apr-20 16:41 37.616502 -122.379643 44 21ft 14kts
01-Apr-20 16:41 37.616680 -122.377978 96 20ft 12kts
01-Apr-20 16:42 37.614098 -122.368446 134 21ft 30kts
01-Apr-20 16:43 37.610683 -122.359405 54 21ft 20kts
01-Apr-20 16:44 37.611878 -122.358863 320 20ft 10kts
01-Apr-20 16:45 37.622824 -122.385766 294 640ft 177kts
01-Apr-20 16:46 37.648262 -122.447312 301 2781ft 218kts
01-Apr-20 16:47 37.666866 -122.518262 247 4822ft 249kts
01-Apr-20 16:48 37.598463 -122.529269 160 7007ft 296kts
01-Apr-20 16:49 37.521282 -122.489418 160 8987ft 304kts
01-Apr-20 16:50 37.456603 -122.417196 127 11020ft 325kts
01-Apr-20 16:51 37.407268 -122.313615 107 13034ft 368kts
01-Apr-20 16:52 37.380533 -122.181775 103 15052ft 404kts
01-Apr-20 16:53 37.352335 -122.040076 103 16817ft 440kts
01-Apr-20 16:54 37.322170 -121.889589 103 18938ft 459kts
01-Apr-20 16:55 37.290047 -121.730486 103 21018ft 476kts
01-Apr-20 16:56 37.256541 -121.565793 103 22929ft 491kts
01-Apr-20 16:57 37.221854 -121.396620 103 24705ft 507kts
01-Apr-20 16:58 37.194080 -121.261918 104 25974ft 518kts
01-Apr-20 16:59 37.156030 -121.078941 105 27961ft 522kts
01-Apr-20 17:00 37.119089 -120.902791 106 29915ft 521kts
01-Apr-20 17:01 37.081536 -120.725185 105 31138ft 534kts
01-Apr-20 17:02 37.043045 -120.544540 105 32761ft 535kts
01-Apr-20 17:03 37.004453 -120.364914 105 34424ft 532kts
01-Apr-20 17:04 36.966382 -120.188823 106 34979ft 524kts
01-Apr-20 17:05 36.927493 -120.013378 110 34981ft 523kts
01-Apr-20 17:06 36.925550 -119.834239 78 34994ft 522kts
01-Apr-20 17:07 36.973033 -119.665585 63 34976ft 514kts
01-Apr-20 17:08 37.027370 -119.499170 63 34980ft 517kts
01-Apr-20 17:09 37.081005 -119.333627 63 34976ft 518kts
01-Apr-20 17:10 37.135953 -119.163156 63 34952ft 521kts
01-Apr-20 17:11 37.190232 -118.993673 63 34919ft 522kts
01-Apr-20 17:12 37.244590 -118.822936 64 34896ft 526kts
01-Apr-20 17:13 37.283403 -118.644299 80 34852ft 533kts
01-Apr-20 17:14 37.300796 -118.458748 82 34787ft 532kts
01-Apr-20 17:15 37.317333 -118.276620 82 34777ft 532kts
01-Apr-20 17:16 37.333878 -118.091055 82 34778ft 532kts
01-Apr-20 17:17 37.348437 -117.905982 89 34784ft 533kts
01-Apr-20 17:18 37.335495 -117.719704 97 34786ft 533kts
01-Apr-20 17:19 37.318755 -117.533381 97 34785ft 532kts
01-Apr-20 17:20 37.296519 -117.349651 109 34796ft 531kts
01-Apr-20 17:21 37.233168 -117.183113 127 34780ft 521kts
01-Apr-20 17:22 37.153906 -117.030485 127 34682ft 522kts
01-Apr-20 17:23 37.056838 -116.900875 149 33154ft 499kts
01-Apr-20 17:24 36.936140 -116.820630 163 31671ft 486kts
01-Apr-20 17:25 36.813802 -116.746173 150 30190ft 500kts
01-Apr-20 17:26 36.715753 -116.626633 135 28203ft 480kts
01-Apr-20 17:27 36.630255 -116.504643 135 26183ft 447kts
01-Apr-20 17:28 36.552171 -116.393873 136 24177ft 402kts
01-Apr-20 17:29 36.481527 -116.293985 137 22181ft 371kts
01-Apr-20 17:30 36.414893 -116.200398 137 20159ft 354kts
01-Apr-20 17:31 36.350395 -116.109757 137 18167ft 348kts
01-Apr-20 17:32 36.285588 -116.018897 136 16165ft 351kts
01-Apr-20 17:33 36.223631 -115.932260 136 16028ft 330kts
01-Apr-20 17:34 36.178083 -115.830595 115 15520ft 345kts
01-Apr-20 17:35 36.142947 -115.720614 114 13822ft 341kts
01-Apr-20 17:36 36.112421 -115.608737 111 12114ft 338kts
01-Apr-20 17:37 36.082037 -115.500474 113 11012ft 312kts
01-Apr-20 17:38 36.050509 -115.407473 118 11093ft 284kts
01-Apr-20 17:39 36.027708 -115.313706 101 10397ft 279kts
01-Apr-20 17:40 36.020062 -115.222834 98 9077ft 256kts
01-Apr-20 17:41 36.013958 -115.134585 98 8290ft 254kts
01-Apr-20 17:42 36.008301 -115.048009 97 8034ft 251kts
01-Apr-20 17:43 36.003652 -114.962058 95 8026ft 250kts
01-Apr-20 17:44 36.002879 -114.875846 94 8016ft 243kts
01-Apr-20 17:45 36.002044 -114.799793 97 8025ft 215kts
01-Apr-20 17:46 35.998282 -114.725719 98 8027ft 215kts
01-Apr-20 17:47 35.994495 -114.651570 98 8026ft 215kts
01-Apr-20 17:48 36.031356 -114.604348 349 8048ft 210kts
01-Apr-20 17:49 36.067439 -114.646485 276 8034ft 180kts
01-Apr-20 17:50 36.073370 -114.707884 274 8024ft 179kts
01-Apr-20 17:51 36.085163 -114.768653 270 8023ft 179kts
01-Apr-20 17:52 36.085812 -114.830280 264 6999ft 177kts
01-Apr-20 17:53 36.083222 -114.891355 261 5997ft 177kts
01-Apr-20 17:54 36.078902 -114.951981 256 5052ft 171kts
01-Apr-20 17:55 36.075409 -115.005769 263 3896ft 152kts
01-Apr-20 17:56 36.074178 -115.057704 261 3245ft 149kts
01-Apr-20 17:57 36.073826 -115.108755 262 2457ft 146kts
01-Apr-20 17:58 36.073839 -115.148326 288 2149ft 48kts
01-Apr-20 17:59 36.077973 -115.152871 336 2148ft 22kts

Navigation Log

Ident Type
Flight plan parsing failed, navigation log unavailable